Time;durP1;ratioP1;P1;durP2;ratioP2;P2;SDS_P1;SDS_P2;PMS_P1;PMS_P2;Temp;Humidity;BMP_temperature;BMP_pressure;BME280_temperature;BME280_humidity;BME280_pressure;Samples;Min_cycle;Max_cycle;Signal;HPM_P1;HPM_P2
2021/04/28 00:01:02;;;;;;;20.40;10.13;;;;;;;-0.84;59.82;98723.98;2211474;80;21380;-78
2021/04/28 00:04:03;;;;;;;13.47;9.30;;;;;;;-0.87;59.78;98716.50;2201070;80;21088;-77
2021/04/28 00:07:04;;;;;;;23.20;10.93;;;;;;;-0.84;59.81;98717.98;2211634;80;21161;-77
2021/04/28 00:10:05;;;;;;;18.77;10.13;;;;;;;-0.76;59.80;98707.73;2200739;80;21110;-79
2021/04/28 00:13:08;;;;;;;15.03;9.30;;;;;;;-0.68;59.61;98710.31;2173922;82;21125;-79
2021/04/28 00:16:09;;;;;;;19.60;10.03;;;;;;;-0.57;59.58;98705.75;2174129;82;21086;-79
2021/04/28 00:19:10;;;;;;;14.73;9.07;;;;;;;-0.43;59.44;98706.08;2201636;80;21393;-80
2021/04/28 00:22:11;;;;;;;17.37;9.80;;;;;;;-0.28;59.08;98709.44;2212488;80;21106;-79
2021/04/28 00:25:12;;;;;;;16.97;9.90;;;;;;;-0.24;58.80;98707.51;2201394;80;21119;-79
2021/04/28 00:28:13;;;;;;;17.30;10.40;;;;;;;-0.14;58.71;98707.58;2212402;80;21106;-79
2021/04/28 00:31:14;;;;;;;18.27;10.87;;;;;;;-0.04;58.62;98704.68;2201882;80;21119;-80
2021/04/28 00:34:16;;;;;;;18.63;10.43;;;;;;;0.05;58.24;98702.61;2174133;81;21224;-80
2021/04/28 00:37:17;;;;;;;16.80;10.63;;;;;;;0.10;58.03;98700.28;2201559;80;21159;-79
2021/04/28 00:40:18;;;;;;;15.97;10.03;;;;;;;0.13;57.91;98697.86;2174081;81;21359;-79
2021/04/28 00:43:19;;;;;;;19.93;10.23;;;;;;;0.24;57.88;98694.14;2201189;80;21147;-80
2021/04/28 00:46:20;;;;;;;21.67;11.33;;;;;;;0.29;57.53;98693.56;2173990;81;21275;-80
2021/04/28 00:49:21;;;;;;;20.17;11.10;;;;;;;0.38;57.43;98696.11;2201471;81;21373;-79
2021/04/28 00:52:22;;;;;;;16.03;10.20;;;;;;;0.43;57.23;98692.95;2174118;81;21109;-79
2021/04/28 00:55:23;;;;;;;18.07;10.80;;;;;;;0.51;57.07;98691.64;2201193;80;21115;-79
2021/04/28 00:58:24;;;;;;;17.40;10.17;;;;;;;0.53;56.89;98690.03;2174005;81;21216;-79
2021/04/28 01:01:25;;;;;;;15.40;9.57;;;;;;;0.54;56.85;98693.08;2201410;81;21146;-79
2021/04/28 01:04:26;;;;;;;19.80;10.03;;;;;;;0.55;56.64;98688.82;2212286;80;21070;-79
2021/04/28 01:07:27;;;;;;;18.63;10.47;;;;;;;0.56;56.53;98687.61;2201276;80;21150;-79
2021/04/28 01:10:28;;;;;;;17.27;9.90;;;;;;;0.56;56.40;98694.03;2173849;81;21121;-79
2021/04/28 01:13:29;;;;;;;17.23;10.00;;;;;;;0.63;56.43;98690.06;2173949;81;21108;-79
2021/04/28 01:16:31;;;;;;;17.03;9.87;;;;;;;0.66;56.23;98690.22;2201306;80;21115;-79
2021/04/28 01:19:32;;;;;;;16.67;9.83;;;;;;;0.70;56.27;98689.96;2212295;80;21113;-79
2021/04/28 01:22:33;;;;;;;15.87;10.23;;;;;;;0.69;56.05;98682.66;2201752;80;21396;-79
2021/04/28 01:25:34;;;;;;;19.93;9.90;;;;;;;0.64;56.08;98677.30;2174160;81;21117;-80
2021/04/28 01:28:35;;;;;;;18.07;9.83;;;;;;;0.65;56.10;98680.75;2174264;81;21113;-79
2021/04/28 01:31:36;;;;;;;19.97;10.83;;;;;;;0.64;56.02;98678.58;2173753;81;21125;-79
2021/04/28 01:34:38;;;;;;;18.70;10.13;;;;;;;0.61;56.08;98669.45;2201333;81;21119;-80
2021/04/28 01:37:39;;;;;;;15.17;9.73;;;;;;;0.61;56.03;98673.70;2174053;81;21169;-79
2021/04/28 01:40:40;;;;;;;15.80;9.73;;;;;;;0.62;56.10;98679.31;2173859;81;21110;-79
2021/04/28 01:43:41;;;;;;;17.93;9.50;;;;;;;0.60;55.96;98680.53;2180213;81;21245;-79
2021/04/28 01:46:42;;;;;;;13.63;10.27;;;;;;;0.60;55.97;98675.80;2181202;82;21573;-80
2021/04/28 01:49:43;;;;;;;16.30;9.80;;;;;;;0.59;56.03;98675.31;2205436;81;21118;-79
2021/04/28 01:52:44;;;;;;;16.30;10.00;;;;;;;0.57;55.83;98674.36;2219401;80;21220;-77
2021/04/28 01:55:45;;;;;;;17.07;10.10;;;;;;;0.54;56.01;98675.09;2204733;81;21135;-77
2021/04/28 01:58:46;;;;;;;54.60;13.97;;;;;;;0.58;56.02;98671.88;2180711;82;21264;-80
2021/04/28 02:01:47;;;;;;;15.27;10.17;;;;;;;0.59;55.98;98674.91;2204976;81;21257;-80
2021/04/28 02:04:49;;;;;;;17.77;10.37;;;;;;;0.61;55.96;98666.00;2181336;82;21121;-79
2021/04/28 02:07:50;;;;;;;14.57;9.77;;;;;;;0.61;56.00;98662.14;2205283;81;21150;-78
2021/04/28 02:10:51;;;;;;;23.40;11.30;;;;;;;0.60;56.11;98661.67;2218930;80;21108;-78
2021/04/28 02:13:52;;;;;;;18.67;10.63;;;;;;;0.59;56.09;98663.76;2204567;81;21405;-77
2021/04/28 02:16:53;;;;;;;18.60;10.23;;;;;;;0.61;56.11;98660.86;2180242;82;21128;-78
2021/04/28 02:19:54;;;;;;;21.50;10.97;;;;;;;0.60;56.06;98659.98;2204920;81;21127;-77
2021/04/28 02:22:55;;;;;;;19.90;10.57;;;;;;;0.62;56.10;98657.48;2180190;82;21248;-77
2021/04/28 02:25:56;;;;;;;19.80;11.53;;;;;;;0.63;56.23;98656.67;2205319;81;21127;-79
2021/04/28 02:28:57;;;;;;;16.93;10.73;;;;;;;0.60;56.12;98650.98;2180718;82;21105;-80
2021/04/28 02:31:58;;;;;;;16.70;10.60;;;;;;;0.64;56.30;98654.18;2205482;81;21126;-79
2021/04/28 02:34:59;;;;;;;21.00;11.50;;;;;;;0.66;56.32;98659.39;2180856;82;21113;-79
2021/04/28 02:38:00;;;;;;;27.27;12.63;;;;;;;0.68;56.27;98655.61;2205099;81;21139;-79
2021/04/28 02:41:01;;;;;;;18.13;11.17;;;;;;;0.66;56.23;98652.09;2182620;81;21117;-79
2021/04/28 02:44:03;;;;;;;19.97;12.20;;;;;;;0.66;56.40;98650.40;2192256;80;21528;-77
2021/04/28 02:47:04;;;;;;;16.90;10.80;;;;;;;0.67;56.25;98650.88;2246048;78;21147;-77
2021/04/28 02:50:05;;;;;;;19.03;10.73;;;;;;;0.66;56.20;98646.95;2246371;79;21126;-80
2021/04/28 02:53:06;;;;;;;20.60;11.17;;;;;;;0.63;56.35;98643.83;2246746;79;21109;-78
2021/04/28 02:56:07;;;;;;;15.50;10.87;;;;;;;0.66;56.29;98652.09;2246977;79;21075;-79
2021/04/28 02:59:08;;;;;;;19.30;11.20;;;;;;;0.66;56.37;98649.52;2246933;79;21060;-79
2021/04/28 03:02:09;;;;;;;23.33;11.53;;;;;;;0.66;56.35;98653.38;2247238;79;21087;-80
2021/04/28 03:05:10;;;;;;;17.30;10.87;;;;;;;0.64;56.25;98648.16;2247244;79;21086;-80
2021/04/28 03:08:11;;;;;;;23.93;12.47;;;;;;;0.62;56.25;98644.64;2246672;79;21122;-82
2021/04/28 03:11:12;;;;;;;19.50;11.27;;;;;;;0.59;56.35;98641.92;2247258;79;21110;-79
2021/04/28 03:14:13;;;;;;;19.97;11.07;;;;;;;0.56;56.38;98640.50;2247418;79;21103;-79
2021/04/28 03:17:14;;;;;;;24.73;11.87;;;;;;;0.51;56.48;98645.41;2247144;79;21322;-79
2021/04/28 03:20:15;;;;;;;19.93;13.73;;;;;;;0.50;56.65;98647.51;2247088;79;21102;-79
2021/04/28 03:23:17;;;;;;;16.10;11.20;;;;;;;0.51;56.79;98646.70;2246805;79;21207;-80
2021/04/28 03:26:18;;;;;;;21.87;12.47;;;;;;;0.52;56.52;98645.89;2246701;79;21444;-78
2021/04/28 03:29:19;;;;;;;18.43;11.93;;;;;;;0.52;56.71;98647.58;2246817;79;21107;-80
2021/04/28 03:32:20;;;;;;;20.50;11.73;;;;;;;0.54;56.74;98639.55;2246901;79;21122;-79
2021/04/28 03:35:21;;;;;;;23.73;12.03;;;;;;;0.54;56.58;98644.28;2246544;79;21218;-79
2021/04/28 03:38:22;;;;;;;18.20;11.50;;;;;;;0.56;56.62;98644.35;2246738;79;21103;-78
2021/04/28 03:41:25;;;;;;;21.43;12.07;;;;;;;0.59;56.48;98647.06;2246638;79;21095;-79
2021/04/28 03:44:26;;;;;;;18.43;11.47;;;;;;;0.61;56.50;98647.61;2278353;78;21448;-78
2021/04/28 03:47:27;;;;;;;21.37;11.77;;;;;;;0.66;56.47;98649.11;2261558;78;21450;-80
2021/04/28 03:50:28;;;;;;;19.07;11.70;;;;;;;0.72;56.33;98644.67;2261159;78;21376;-79
2021/04/28 03:53:29;;;;;;;20.23;12.00;;;;;;;0.78;56.25;98647.52;2261300;78;21134;-79
2021/04/28 03:56:30;;;;;;;19.30;11.27;;;;;;;0.82;56.07;98652.00;2261239;79;21117;-78
2021/04/28 03:59:31;;;;;;;483.30;40.53;;;;;;;0.88;55.97;98658.74;2261257;78;21099;-80
2021/04/28 04:02:33;;;;;;;43.73;12.23;;;;;;;0.95;55.92;98660.78;2261085;78;21373;-79
2021/04/28 04:05:34;;;;;;;23.97;11.37;;;;;;;1.03;55.70;98668.45;2261122;78;21221;-78
2021/04/28 04:08:35;;;;;;;17.90;10.43;;;;;;;1.12;55.59;98667.98;2261156;78;21118;-79
2021/04/28 04:11:36;;;;;;;19.90;11.47;;;;;;;1.24;55.37;98669.83;2261219;78;21090;-79
2021/04/28 04:14:37;;;;;;;19.70;11.70;;;;;;;1.31;55.17;98670.58;2260859;78;21420;-78
2021/04/28 04:17:38;;;;;;;22.10;11.27;;;;;;;1.44;55.00;98672.89;2261077;78;21095;-79
2021/04/28 04:20:39;;;;;;;20.80;10.80;;;;;;;1.59;54.73;98665.85;2261467;79;21126;-79
2021/04/28 04:23:40;;;;;;;17.23;11.13;;;;;;;1.76;54.67;98665.33;2261108;78;21304;-79
2021/04/28 04:26:41;;;;;;;18.67;11.13;;;;;;;1.94;54.38;98668.22;2260999;78;21138;-78
2021/04/28 04:29:42;;;;;;;20.03;10.80;;;;;;;2.13;54.07;98661.34;2261174;78;21118;-78
2021/04/28 04:32:43;;;;;;;16.30;10.73;;;;;;;2.39;53.43;98656.38;2261225;78;21103;-79
2021/04/28 04:35:44;;;;;;;17.30;11.20;;;;;;;2.63;52.94;98662.55;2260666;78;21079;-79
2021/04/28 04:38:45;;;;;;;16.17;9.97;;;;;;;2.88;52.56;98650.22;2260863;78;21147;-79
2021/04/28 04:41:46;;;;;;;158.00;18.40;;;;;;;3.13;51.94;98654.20;2260973;78;21130;-78
2021/04/28 04:44:47;;;;;;;18.67;10.60;;;;;;;3.32;51.79;98652.31;2253209;78;21432;-76
2021/04/28 04:47:48;;;;;;;29.73;11.63;;;;;;;3.73;51.09;98659.88;2253460;78;21162;-79
2021/04/28 04:50:49;;;;;;;31.20;11.50;;;;;;;3.73;51.09;98659.88;2253321;78;21102;-80
2021/04/28 04:53:50;;;;;;;35.17;11.27;;;;;;;5.78;55.36;98647.02;2253907;78;21134;-75
2021/04/28 04:56:51;;;;;;;31.60;12.27;;;;;;;8.84;50.28;98643.00;2253300;78;21205;-76
2021/04/28 04:59:53;;;;;;;24.97;11.30;;;;;;;11.08;41.68;98632.50;2258408;78;21380;-78
2021/04/28 05:02:54;;;;;;;25.67;11.50;;;;;;;12.20;37.63;98625.22;2259758;78;21094;-77
2021/04/28 05:05:55;;;;;;;25.27;10.67;;;;;;;12.19;37.68;98628.70;2259983;78;21147;-77
2021/04/28 05:08:56;;;;;;;40.07;11.27;;;;;;;12.05;36.66;98630.82;2259563;78;21130;-77
2021/04/28 05:11:57;;;;;;;14.10;10.67;;;;;;;10.57;36.09;98634.73;2259618;78;21206;-77
2021/04/28 05:14:58;;;;;;;15.07;9.50;;;;;;;9.36;37.18;98634.63;2259526;78;21121;-77
2021/04/28 05:17:59;;;;;;;13.93;9.67;;;;;;;8.56;38.13;98632.97;2259788;78;21122;-78
2021/04/28 05:21:00;;;;;;;19.67;10.23;;;;;;;8.09;38.70;98639.50;2259606;78;21217;-77
2021/04/28 05:24:01;;;;;;;100.13;13.00;;;;;;;7.67;39.46;98639.09;2259531;78;21071;-77
2021/04/28 05:27:02;;;;;;;14.73;9.40;;;;;;;7.47;39.76;98640.41;2259329;79;21150;-77
2021/04/28 05:30:03;;;;;;;12.70;8.90;;;;;;;7.24;39.94;98641.23;2259481;78;21432;-76
2021/04/28 05:33:05;;;;;;;12.67;9.27;;;;;;;7.23;40.38;98645.97;2259524;78;21095;-76
2021/04/28 05:36:06;;;;;;;12.80;8.17;;;;;;;7.22;40.15;98638.14;2259356;78;21110;-77
2021/04/28 05:39:08;;;;;;;17.40;9.27;;;;;;;7.21;40.15;98642.46;2259649;78;21134;-76
2021/04/28 05:42:09;;;;;;;15.00;8.87;;;;;;;7.27;39.89;98646.48;2258425;78;21121;-76
2021/04/28 05:45:10;;;;;;;12.63;8.73;;;;;;;7.33;40.22;98648.34;2246086;79;21075;-76
2021/04/28 05:48:11;;;;;;;9.40;7.50;;;;;;;7.55;40.00;98646.64;2246071;79;21111;-76
2021/04/28 05:51:12;;;;;;;1046.30;96.20;;;;;;;7.76;39.19;98647.92;2246193;79;21404;-79
2021/04/28 05:54:13;;;;;;;102.33;12.67;;;;;;;7.99;39.55;98648.84;2246290;79;21123;-76
2021/04/28 05:57:14;;;;;;;136.83;14.87;;;;;;;8.12;38.99;98650.38;2246080;79;21408;-75
2021/04/28 06:00:15;;;;;;;29.87;9.50;;;;;;;8.34;38.71;98652.55;2246044;79;21107;-76
2021/04/28 06:03:18;;;;;;;28.67;8.77;;;;;;;8.46;38.85;98650.16;2246034;79;21361;-77
2021/04/28 06:06:19;;;;;;;15.97;9.33;;;;;;;8.58;37.46;98649.06;2246103;79;21147;-76
2021/04/28 06:09:20;;;;;;;23.10;8.53;;;;;;;8.71;37.63;98663.17;2246304;79;21126;-81
2021/04/28 06:12:21;;;;;;;12.77;8.93;;;;;;;8.81;37.34;98653.79;2246042;79;21135;-79
2021/04/28 06:15:22;;;;;;;17.73;9.30;;;;;;;8.88;37.68;98660.41;2246101;79;21099;-78
2021/04/28 06:18:23;;;;;;;39.33;10.77;;;;;;;9.09;37.60;98657.69;2246246;79;21099;-78
2021/04/28 06:21:24;;;;;;;15.90;8.70;;;;;;;9.21;37.11;98646.14;2246561;79;21224;-79
2021/04/28 06:24:26;;;;;;;13.90;8.37;;;;;;;9.32;36.91;98647.16;2246044;79;21213;-78
2021/04/28 06:27:29;;;;;;;17.97;8.53;;;;;;;9.50;36.74;98642.63;2246389;79;21249;-76
2021/04/28 06:30:30;;;;;;;25.97;8.97;;;;;;;9.67;36.48;98635.05;2246035;79;21099;-78
2021/04/28 06:33:33;;;;;;;86.60;11.37;;;;;;;9.71;36.33;98639.44;2246066;79;21095;-78
2021/04/28 06:36:34;;;;;;;15.13;8.00;;;;;;;9.94;35.96;98631.45;2246026;79;21221;-80
2021/04/28 06:39:35;;;;;;;13.10;7.13;;;;;;;10.20;35.82;98642.19;2245732;79;21134;-78
2021/04/28 06:42:36;;;;;;;10.80;7.13;;;;;;;10.45;35.61;98627.67;2245350;78;21491;-78
2021/04/28 06:45:37;;;;;;;13.57;8.07;;;;;;;10.67;34.99;98641.34;2245301;79;21098;-78
2021/04/28 06:48:38;;;;;;;17.87;8.47;;;;;;;10.81;34.70;98637.11;2245684;79;21123;-79
2021/04/28 06:51:39;;;;;;;16.10;8.00;;;;;;;10.96;33.94;98636.77;2246109;79;21099;-78
2021/04/28 06:54:41;;;;;;;46.07;10.10;;;;;;;10.94;33.69;98632.84;2246099;79;21214;-79
2021/04/28 06:57:42;;;;;;;12.68;7.10;;;;;;;11.02;33.47;98635.51;2246413;79;21226;-78
2021/04/28 07:00:43;;;;;;;14.90;7.97;;;;;;;11.13;33.93;98633.84;2246012;79;21102;-78
2021/04/28 07:03:44;;;;;;;59.60;9.50;;;;;;;11.37;34.14;98635.75;2245934;79;21098;-78
2021/04/28 07:06:45;;;;;;;22.50;8.08;;;;;;;11.59;32.99;98639.34;2246037;79;21424;-79
2021/04/28 07:09:46;;;;;;;62.45;9.85;;;;;;;11.67;32.21;98630.66;2245984;79;21111;-78
2021/04/28 07:12:51;;;;;;;11.65;6.50;;;;;;;11.78;32.34;98624.20;2246132;79;21098;-78
2021/04/28 07:15:52;;;;;;;9.35;5.53;;;;;;;12.04;32.78;98630.38;2245998;79;21095;-77
2021/04/28 07:18:53;;;;;;;12.82;4.90;;;;;;;12.32;31.25;98626.55;2245561;79;21134;-78
2021/04/28 07:21:55;;;;;;;8.20;5.00;;;;;;;12.44;30.57;98625.25;2245665;79;21135;-78
2021/04/28 07:24:56;;;;;;;9.28;4.40;;;;;;;12.67;30.66;98633.11;2246862;79;21107;-80
2021/04/28 07:27:59;;;;;;;6.97;5.17;;;;;;;12.83;28.90;98626.99;2247141;79;21383;-79
2021/04/28 07:31:01;;;;;;;14.98;5.90;;;;;;;12.73;28.12;98626.12;2247393;79;21083;-78
2021/04/28 07:34:02;;;;;;;9.63;5.75;;;;;;;12.71;28.74;98640.97;2246487;79;21111;-79
2021/04/28 07:37:03;;;;;;;10.15;5.03;;;;;;;12.60;28.22;98638.78;2246462;79;21408;-79
2021/04/28 07:40:04;;;;;;;13.45;5.30;;;;;;;12.66;28.17;98627.44;2246229;79;21143;-79
2021/04/28 07:43:05;;;;;;;10.78;5.47;;;;;;;12.85;28.61;98637.47;2232019;79;21161;-79
2021/04/28 07:46:06;;;;;;;26.20;5.53;;;;;;;12.93;27.46;98634.41;2246326;79;21542;-78
2021/04/28 07:49:07;;;;;;;10.55;4.87;;;;;;;12.96;26.54;98633.09;2245886;79;21104;-78
2021/04/28 07:52:08;;;;;;;7.12;4.92;;;;;;;12.81;25.62;98625.25;2245635;79;21364;-79
2021/04/28 07:55:09;;;;;;;148.65;12.28;;;;;;;12.80;27.34;98623.50;2246054;79;21096;-78
2021/04/28 07:58:10;;;;;;;8.68;5.08;;;;;;;12.73;27.51;98633.11;2246002;79;21084;-81
2021/04/28 08:01:11;;;;;;;7.72;5.33;;;;;;;12.69;26.27;98613.03;2246361;79;21087;-79
2021/04/28 08:04:12;;;;;;;6.58;4.87;;;;;;;12.72;26.74;98624.38;2246636;79;21095;-79
2021/04/28 08:07:13;;;;;;;7.12;5.08;;;;;;;13.24;28.60;98619.14;2246825;79;21178;-79
2021/04/28 08:10:14;;;;;;;8.68;4.62;;;;;;;13.55;26.82;98608.55;2246627;79;21119;-80
2021/04/28 08:13:16;;;;;;;7.20;4.72;;;;;;;13.58;26.23;98615.97;2246481;79;21123;-79
2021/04/28 08:16:19;;;;;;;7.00;4.83;;;;;;;13.64;25.74;98611.14;2246356;79;21107;-79
2021/04/28 08:19:20;;;;;;;9.75;5.10;;;;;;;13.59;25.97;98615.53;2246366;79;21111;-79
2021/04/28 08:22:21;;;;;;;6.40;5.03;;;;;;;13.55;25.91;98611.17;2245674;79;21242;-78
2021/04/28 08:25:22;;;;;;;107.07;9.68;;;;;;;13.47;26.34;98616.89;2245969;79;21118;-77
2021/04/28 08:28:23;;;;;;;8.48;4.70;;;;;;;13.53;26.59;98600.69;2246117;79;21471;-79
2021/04/28 08:31:24;;;;;;;11.83;5.58;;;;;;;13.61;26.39;98607.22;2246343;79;21098;-80
2021/04/28 08:34:25;;;;;;;5.42;4.87;;;;;;;13.57;26.71;98606.36;2246634;79;21103;-78
2021/04/28 08:37:26;;;;;;;148.62;12.98;;;;;;;13.68;26.15;98602.38;2246277;79;21091;-78
2021/04/28 08:40:27;;;;;;;9.68;5.35;;;;;;;13.88;26.51;98605.81;2246122;79;21127;-78
2021/04/28 08:43:28;;;;;;;5.08;4.62;;;;;;;14.16;26.17;98603.90;2246234;78;21261;-78
2021/04/28 08:46:29;;;;;;;10.82;4.97;;;;;;;14.29;26.58;98595.50;2246197;79;21420;-78
2021/04/28 08:49:30;;;;;;;31.25;5.90;;;;;;;14.56;26.47;98597.08;2245929;79;21068;-78
2021/04/28 08:52:31;;;;;;;6.72;4.72;;;;;;;14.73;26.00;98593.00;2246270;79;21072;-78
2021/04/28 08:55:33;;;;;;;6.58;4.05;;;;;;;14.84;25.94;98591.17;2246307;79;21365;-79
2021/04/28 08:58:34;;;;;;;9.38;4.90;;;;;;;14.90;25.45;98579.30;2246292;79;21097;-78
2021/04/28 09:01:35;;;;;;;6.90;5.00;;;;;;;15.00;25.51;98590.59;2246313;79;21110;-78
2021/04/28 09:04:36;;;;;;;6.67;5.22;;;;;;;15.19;25.99;98579.86;2246482;79;21365;-79
2021/04/28 09:07:39;;;;;;;4.80;4.25;;;;;;;15.43;26.27;98580.03;2246629;79;21146;-79
2021/04/28 09:10:40;;;;;;;13.50;5.45;;;;;;;15.59;25.33;98578.11;2246129;79;21122;-79
2021/04/28 09:13:41;;;;;;;10.03;4.35;;;;;;;15.67;25.18;98572.34;2245998;79;21099;-78
2021/04/28 09:16:45;;;;;;;9.15;5.00;;;;;;;15.75;25.21;98569.17;2246176;79;21102;-79
2021/04/28 09:19:53;;;;;;;5.50;4.25;;;;;;;15.79;24.53;98565.61;2246450;79;21091;-79
2021/04/28 09:22:50;;;;;;;7.17;4.80;;;;;;;15.85;24.87;98561.58;2246121;79;21107;-78
2021/04/28 09:25:51;;;;;;;5.95;4.35;;;;;;;15.87;24.35;98554.53;2245757;79;21217;-78
2021/04/28 09:28:53;;;;;;;18.60;5.03;;;;;;;15.85;25.03;98552.36;2245782;79;21099;-78
2021/04/28 09:31:54;;;;;;;10.18;4.65;;;;;;;15.97;24.68;98550.00;2246565;79;21102;-80
2021/04/28 09:34:55;;;;;;;7.22;4.67;;;;;;;16.05;24.26;98548.57;2246999;79;21127;-77
2021/04/28 09:37:56;;;;;;;5.67;4.37;;;;;;;16.09;24.39;98552.91;2246189;79;21097;-79
2021/04/28 09:40:58;;;;;;;9.80;5.12;;;;;;;16.14;24.17;98549.30;2246054;79;21111;-77
2021/04/28 09:44:00;;;;;;;25.88;6.33;;;;;;;15.96;23.92;98544.31;2256694;78;21403;-77
2021/04/28 09:47:05;;;;;;;6.05;4.37;;;;;;;15.90;24.59;98539.14;2278984;77;21280;-78
2021/04/28 09:50:06;;;;;;;9.45;5.10;;;;;;;15.96;23.90;98532.91;2278175;77;21094;-78
2021/04/28 09:53:07;;;;;;;10.28;4.35;;;;;;;16.01;24.93;98527.14;2278766;77;21102;-79
2021/04/28 09:56:08;;;;;;;5.58;4.85;;;;;;;16.24;24.81;98528.97;2278620;77;21130;-77
2021/04/28 09:59:09;;;;;;;7.83;4.05;;;;;;;16.16;23.17;98513.73;2279148;77;21094;-78
2021/04/28 10:02:10;;;;;;;63.38;7.30;;;;;;;16.08;23.76;98510.35;2277887;77;21090;-77
2021/04/28 10:05:11;;;;;;;6.30;4.42;;;;;;;16.31;25.15;98514.80;2260824;78;21392;-78
2021/04/28 10:08:12;;;;;;;7.08;4.67;;;;;;;16.57;23.79;98518.34;2260669;78;21146;-78
2021/04/28 10:11:13;;;;;;;7.90;5.00;;;;;;;16.68;23.83;98515.55;2284377;78;21158;-79
2021/04/28 10:14:15;;;;;;;13.15;4.92;;;;;;;16.76;23.73;98513.20;2291320;77;21070;-80
2021/04/28 10:17:17;;;;;;;8.90;5.37;;;;;;;16.51;23.50;98512.73;2260496;79;21094;-79
2021/04/28 10:20:18;;;;;;;7.55;5.25;;;;;;;16.34;23.91;98510.80;2260711;78;21110;-78
2021/04/28 10:23:20;;;;;;;15.98;5.62;;;;;;;16.31;24.44;98518.75;2260764;78;21249;-78
2021/04/28 10:26:21;;;;;;;7.78;5.10;;;;;;;16.30;24.56;98505.16;2260966;78;21146;-79
2021/04/28 10:29:22;;;;;;;8.83;5.37;;;;;;;16.46;24.35;98511.05;2260974;78;21102;-79
2021/04/28 10:32:23;;;;;;;8.73;5.10;;;;;;;16.66;24.19;98506.36;2260949;78;21245;-79
2021/04/28 10:35:25;;;;;;;9.93;5.30;;;;;;;16.79;24.11;98505.69;2261237;78;21118;-79
2021/04/28 10:38:26;;;;;;;7.58;4.95;;;;;;;16.73;24.44;98498.77;2260289;78;21082;-77
2021/04/28 10:41:27;;;;;;;8.60;5.17;;;;;;;16.75;24.58;98493.02;2260497;78;21142;-80
2021/04/28 10:44:28;;;;;;;30.70;7.47;;;;;;;16.87;23.99;98489.28;2257439;78;21416;-79
2021/04/28 10:47:29;;;;;;;7.78;5.58;;;;;;;16.98;24.59;98485.13;2253532;78;21130;-79
2021/04/28 10:50:30;;;;;;;6.25;5.00;;;;;;;17.24;23.94;98486.78;2254789;78;21237;-79
2021/04/28 10:53:31;;;;;;;5.97;4.78;;;;;;;17.29;23.95;98473.05;2259876;78;21091;-80
2021/04/28 10:56:32;;;;;;;9.78;5.47;;;;;;;17.29;23.75;98469.55;2259920;78;21066;-78
2021/04/28 10:59:33;;;;;;;14.87;5.30;;;;;;;17.43;23.48;98463.11;2260246;78;21102;-75
2021/04/28 11:02:34;;;;;;;23.32;5.97;;;;;;;17.53;23.38;98472.14;2259463;78;21345;-79
2021/04/28 11:05:36;;;;;;;7.90;6.03;;;;;;;17.68;23.46;98470.52;2260151;78;21221;-79
2021/04/28 11:08:37;;;;;;;8.70;5.53;;;;;;;17.68;23.19;98470.06;2259950;78;21181;-78
2021/04/28 11:11:38;;;;;;;6.05;5.08;;;;;;;17.79;23.06;98459.25;2259740;78;21390;-79
2021/04/28 11:14:40;;;;;;;11.83;5.58;;;;;;;17.93;23.15;98458.93;2259408;78;21110;-78
2021/04/28 11:17:41;;;;;;;18.90;6.30;;;;;;;17.93;22.77;98461.57;2259652;78;21125;-79
2021/04/28 11:20:43;;;;;;;10.15;5.17;;;;;;;17.96;22.55;98451.80;2259743;78;21114;-79
2021/04/28 11:23:44;;;;;;;28.32;6.80;;;;;;;18.00;22.03;98448.64;2260240;78;21090;-80
2021/04/28 11:26:45;;;;;;;8.73;5.95;;;;;;;17.92;22.24;98450.59;2260333;78;21280;-78
2021/04/28 11:29:46;;;;;;;6.75;5.05;;;;;;;17.90;22.33;98446.67;2260602;78;21213;-79
2021/04/28 11:32:47;;;;;;;11.53;5.53;;;;;;;17.86;22.23;98444.14;2260436;78;21122;-80
2021/04/28 11:35:48;;;;;;;8.98;5.80;;;;;;;17.69;21.77;98436.16;2260593;78;21125;-80
2021/04/28 11:38:49;;;;;;;10.50;5.70;;;;;;;17.73;21.85;98443.56;2260283;78;21388;-78
2021/04/28 11:41:50;;;;;;;8.23;5.58;;;;;;;17.77;21.85;98435.53;2259838;78;21135;-80
2021/04/28 11:44:51;;;;;;;9.25;5.30;;;;;;;17.88;21.88;98436.59;2268926;78;21275;-79
2021/04/28 11:47:52;;;;;;;6.60;5.17;;;;;;;17.94;21.58;98428.98;2277058;78;21146;-79
2021/04/28 11:50:53;;;;;;;10.95;5.47;;;;;;;18.14;21.82;98426.72;2261860;78;21228;-78
2021/04/28 11:53:54;;;;;;;123.28;11.95;;;;;;;17.96;20.94;98415.28;2261752;78;21074;-78
2021/04/28 11:56:55;;;;;;;8.95;5.80;;;;;;;18.07;21.65;98418.53;2260823;78;21102;-77
2021/04/28 11:59:57;;;;;;;14.10;5.55;;;;;;;18.04;20.83;98417.28;2260915;78;21111;-78
2021/04/28 12:02:58;;;;;;;6.87;5.00;;;;;;;18.03;20.51;98408.95;2261158;78;21125;-78
2021/04/28 12:05:59;;;;;;;8.35;5.50;;;;;;;18.06;21.13;98406.23;2260712;78;21256;-78
2021/04/28 12:09:00;;;;;;;6.03;4.97;;;;;;;18.10;21.71;98401.28;2261210;78;21106;-77
2021/04/28 12:12:01;;;;;;;32.98;7.42;;;;;;;18.18;21.49;98401.95;2261153;78;21230;-78
2021/04/28 12:15:02;;;;;;;6.30;4.95;;;;;;;18.10;21.48;98399.97;2261087;79;21233;-77
2021/04/28 12:18:03;;;;;;;9.43;4.95;;;;;;;18.19;21.16;98394.45;2261290;78;21379;-78
2021/04/28 12:21:06;;;;;;;5.78;4.83;;;;;;;18.35;20.31;98393.17;2260403;79;21783;-77
2021/04/28 12:24:07;;;;;;;7.87;5.25;;;;;;;18.34;20.50;98392.76;2260911;78;21233;-77
2021/04/28 12:27:08;;;;;;;6.47;4.72;;;;;;;18.48;20.56;98398.13;2260620;78;21408;-77
2021/04/28 12:30:09;;;;;;;5.58;4.47;;;;;;;18.60;20.22;98386.77;2260964;78;21400;-78
2021/04/28 12:33:11;;;;;;;8.30;4.75;;;;;;;18.61;20.16;98388.53;2261619;78;21146;-79
2021/04/28 12:36:12;;;;;;;7.20;5.62;;;;;;;18.64;19.82;98378.33;2261026;78;21071;-77
2021/04/28 12:39:13;;;;;;;5.95;4.78;;;;;;;18.58;20.66;98377.14;2261472;78;21111;-78
2021/04/28 12:42:14;;;;;;;6.75;5.12;;;;;;;18.55;20.72;98370.63;2260686;78;21094;-78
2021/04/28 12:45:16;;;;;;;12.82;6.03;;;;;;;18.54;20.36;98360.50;2271078;77;21130;-78
2021/04/28 12:48:18;;;;;;;6.17;5.22;;;;;;;18.60;20.51;98366.94;2300562;77;21252;-77
2021/04/28 12:51:19;;;;;;;8.30;4.78;;;;;;;18.68;20.45;98362.80;2301021;77;21098;-78
2021/04/28 12:54:20;;;;;;;6.42;5.60;;;;;;;18.69;20.36;98363.20;2268979;77;21102;-78
2021/04/28 12:57:23;;;;;;;11.88;5.50;;;;;;;18.57;20.03;98359.55;2264792;78;21110;-78
2021/04/28 13:00:24;;;;;;;6.37;5.53;;;;;;;18.59;20.49;98359.05;2264618;78;21114;-78
2021/04/28 13:03:25;;;;;;;8.48;5.42;;;;;;;18.48;20.43;98355.39;2263546;78;21121;-77
2021/04/28 13:06:26;;;;;;;182.47;14.25;;;;;;;18.45;20.57;98360.30;2264541;78;21129;-79
2021/04/28 13:09:27;;;;;;;7.95;5.28;;;;;;;18.51;20.64;98354.44;2263967;78;21388;-78
2021/04/28 13:12:28;;;;;;;6.60;5.25;;;;;;;18.53;20.52;98349.52;2265519;78;21133;-79
2021/04/28 13:15:29;;;;;;;14.55;4.95;;;;;;;18.47;20.89;98344.41;2264034;78;21383;-78
2021/04/28 13:18:30;;;;;;;8.40;5.35;;;;;;;18.57;20.72;98335.31;2264387;78;21066;-77
2021/04/28 13:21:31;;;;;;;6.20;4.37;;;;;;;18.64;21.01;98334.26;2264395;78;21221;-78
2021/04/28 13:24:34;;;;;;;7.37;5.22;;;;;;;18.80;20.67;98341.29;2264436;78;21122;-78
2021/04/28 13:27:35;;;;;;;7.35;4.90;;;;;;;18.82;20.66;98332.86;2263956;78;21146;-77
2021/04/28 13:30:36;;;;;;;88.27;11.68;;;;;;;18.84;20.69;98332.36;2264139;78;21344;-77
2021/04/28 13:33:39;;;;;;;16.75;5.67;;;;;;;18.83;20.37;98325.34;2264118;78;21233;-79
2021/04/28 13:36:40;;;;;;;13.78;5.67;;;;;;;18.81;20.32;98325.84;2264087;78;21217;-78
2021/04/28 13:39:41;;;;;;;7.47;5.25;;;;;;;18.81;20.49;98324.52;2264611;78;21345;-79
2021/04/28 13:42:42;;;;;;;10.43;5.90;;;;;;;18.81;20.03;98319.23;2264293;79;21142;-78
2021/04/28 13:45:43;;;;;;;51.55;7.72;;;;;;;18.74;20.69;98323.83;2266322;78;21146;-80
2021/04/28 13:48:44;;;;;;;7.15;5.80;;;;;;;18.96;20.81;98315.26;2267341;78;21432;-77
2021/04/28 13:51:45;;;;;;;34.08;7.00;;;;;;;19.09;20.16;98316.20;2263180;78;21237;-77
2021/04/28 13:54:46;;;;;;;9.45;5.55;;;;;;;19.13;20.04;98310.35;2259869;78;21067;-77
2021/04/28 13:57:48;;;;;;;16.70;5.95;;;;;;;19.15;19.92;98310.30;2260342;78;21098;-79
2021/04/28 14:00:49;;;;;;;11.43;5.17;;;;;;;18.98;20.48;98309.01;2259988;78;21099;-78
2021/04/28 14:03:50;;;;;;;12.85;5.45;;;;;;;18.97;20.52;98308.59;2260304;79;21094;-78